Time;durP1;ratioP1;P1;durP2;ratioP2;P2;SDS_P1;SDS_P2;PMS_P1;PMS_P2;Temp;Humidity;BMP_temperature;BMP_pressure;BME280_temperature;BME280_humidity;BME280_pressure;Samples;Min_cycle;Max_cycle;Signal;HPM_P1;HPM_P2
2021/03/10 00:02:25;;;;;;;21.93;14.60;;;;;;;;;;4765064;30;20251;-78
2021/03/10 00:05:06;;;;;;;24.10;15.23;;;;;;;;;;4731886;30;20234;-79
2021/03/10 00:07:34;;;;;;;25.97;14.90;;;;;;;;;;4748837;30;20760;-78
2021/03/10 00:10:03;;;;;;;24.17;15.53;;;;;;;;;;4741169;30;20964;-77
2021/03/10 00:12:31;;;;;;;26.77;15.07;;;;;;;;;;4743826;30;20253;-78
2021/03/10 00:14:58;;;;;;;25.20;14.53;;;;;;;;;;4749423;30;20249;-78
2021/03/10 00:17:26;;;;;;;21.73;13.67;;;;;;;;;;4751616;30;20247;-77
2021/03/10 00:19:55;;;;;;;23.03;14.43;;;;;;;;;;4750502;30;20338;-79
2021/03/10 00:22:23;;;;;;;24.23;15.20;;;;;;;;;;4749943;30;20713;-78
2021/03/10 00:24:51;;;;;;;23.33;15.13;;;;;;;;;;4731503;30;20249;-79
2021/03/10 00:27:25;;;;;;;23.07;14.77;;;;;;;;;;4743124;30;20238;-78
2021/03/10 00:29:54;;;;;;;27.73;19.97;;;;;;;;;;4750289;30;20233;-78
2021/03/10 00:32:22;;;;;;;26.60;19.17;;;;;;;;;;4763334;30;20618;-78
2021/03/10 00:34:50;;;;;;;27.00;19.23;;;;;;;;;;4760222;30;20254;-79
2021/03/10 00:37:19;;;;;;;29.60;20.60;;;;;;;;;;4748654;30;20238;-78
2021/03/10 00:39:49;;;;;;;33.07;21.97;;;;;;;;;;4751008;30;20281;-78
2021/03/10 00:42:17;;;;;;;30.53;22.33;;;;;;;;;;4730938;30;20241;-78
2021/03/10 00:44:45;;;;;;;29.83;21.27;;;;;;;;;;4750114;30;20230;-77
2021/03/10 00:47:13;;;;;;;34.33;24.43;;;;;;;;;;4742972;30;20234;-79
2021/03/10 00:49:42;;;;;;;34.37;22.50;;;;;;;;;;4729703;30;20230;-79
2021/03/10 00:52:11;;;;;;;29.90;21.77;;;;;;;;;;4745608;30;20725;-79
2021/03/10 00:54:40;;;;;;;34.13;22.83;;;;;;;;;;4746398;30;20237;-79
2021/03/10 00:57:09;;;;;;;34.70;21.93;;;;;;;;;;4746044;30;20237;-79
2021/03/10 00:59:38;;;;;;;34.30;23.50;;;;;;;;;;4744598;30;20237;-78
2021/03/10 01:02:06;;;;;;;32.10;23.57;;;;;;;;;;4743330;30;20237;-79
2021/03/10 01:04:34;;;;;;;34.13;24.50;;;;;;;;;;4743253;29;20237;-79
2021/03/10 01:07:02;;;;;;;30.53;22.77;;;;;;;;;;4727898;30;20234;-79
2021/03/10 01:09:30;;;;;;;34.77;23.83;;;;;;;;;;4747925;30;20675;-79
2021/03/10 01:11:58;;;;;;;33.90;23.50;;;;;;;;;;4723570;30;20246;-81
2021/03/10 01:14:28;;;;;;;33.27;23.73;;;;;;;;;;4746179;30;20242;-79
2021/03/10 01:16:56;;;;;;;37.03;24.40;;;;;;;;;;4744343;30;20249;-79
2021/03/10 01:19:28;;;;;;;38.50;23.33;;;;;;;;;;4765024;29;20224;-78
2021/03/10 01:21:55;;;;;;;36.20;23.97;;;;;;;;;;4765936;29;20242;-79
2021/03/10 01:24:23;;;;;;;36.07;23.87;;;;;;;;;;4726016;30;20245;-79
2021/03/10 01:26:51;;;;;;;34.53;24.67;;;;;;;;;;4738925;30;20241;-78
2021/03/10 01:29:20;;;;;;;35.50;25.00;;;;;;;;;;4757270;30;20233;-79
2021/03/10 01:31:49;;;;;;;34.27;23.80;;;;;;;;;;4758666;29;20241;-79
2021/03/10 01:34:17;;;;;;;38.03;24.97;;;;;;;;;;4756840;30;20249;-79
2021/03/10 01:36:45;;;;;;;32.20;23.17;;;;;;;;;;4757249;30;20249;-79
2021/03/10 01:39:13;;;;;;;36.63;24.57;;;;;;;;;;4752599;30;20238;-78
2021/03/10 01:41:40;;;;;;;36.97;23.00;;;;;;;;;;4747005;30;20239;-78
2021/03/10 01:44:08;;;;;;;35.10;24.57;;;;;;;;;;4749603;30;20230;-79
2021/03/10 01:46:40;;;;;;;33.53;23.80;;;;;;;;;;4733988;30;20250;-78
2021/03/10 01:49:09;;;;;;;33.97;23.03;;;;;;;;;;4739248;30;20247;-80
2021/03/10 01:51:37;;;;;;;34.80;24.00;;;;;;;;;;4743999;30;20610;-79
2021/03/10 01:54:06;;;;;;;39.73;26.13;;;;;;;;;;4730096;30;20248;-79
2021/03/10 01:56:34;;;;;;;36.20;25.93;;;;;;;;;;4725605;30;20230;-78
2021/03/10 01:59:02;;;;;;;36.30;24.93;;;;;;;;;;4728128;30;20237;-78
2021/03/10 02:01:30;;;;;;;39.60;26.23;;;;;;;;;;4743822;30;20234;-79
2021/03/10 02:04:03;;;;;;;37.30;26.07;;;;;;;;;;4760976;30;20237;-80
2021/03/10 02:06:45;;;;;;;35.10;25.40;;;;;;;;;;4746115;30;20241;-79
2021/03/10 02:09:17;;;;;;;41.23;26.60;;;;;;;;;;4759893;30;20233;-78
2021/03/10 02:11:48;;;;;;;36.13;24.43;;;;;;;;;;4747373;30;20249;-79
2021/03/10 02:14:23;;;;;;;37.70;26.43;;;;;;;;;;4725238;30;20245;-79
2021/03/10 02:16:55;;;;;;;34.70;24.13;;;;;;;;;;4726280;30;20245;-79
2021/03/10 02:19:50;;;;;;;34.40;24.63;;;;;;;;;;4740865;30;20248;-79
2021/03/10 02:22:42;;;;;;;35.77;25.03;;;;;;;;;;4727277;30;20244;-78
2021/03/10 02:25:13;;;;;;;37.37;25.60;;;;;;;;;;4741032;30;20721;-78
2021/03/10 02:27:44;;;;;;;37.10;26.47;;;;;;;;;;4739098;30;20618;-80
2021/03/10 02:30:16;;;;;;;39.00;25.00;;;;;;;;;;4744448;30;20248;-80
2021/03/10 02:32:47;;;;;;;37.67;24.43;;;;;;;;;;4732318;30;20241;-78
2021/03/10 02:35:18;;;;;;;35.20;24.77;;;;;;;;;;4732263;30;20253;-78
2021/03/10 02:37:48;;;;;;;39.37;26.50;;;;;;;;;;4732881;30;20245;-78
2021/03/10 02:40:16;;;;;;;37.70;25.60;;;;;;;;;;4739382;30;20240;-78
2021/03/10 02:42:46;;;;;;;37.63;25.37;;;;;;;;;;4724309;30;20234;-78
2021/03/10 02:45:14;;;;;;;42.00;26.47;;;;;;;;;;4736746;30;20244;-78
2021/03/10 02:47:42;;;;;;;40.53;25.63;;;;;;;;;;4747159;30;20700;-78
2021/03/10 02:50:11;;;;;;;36.80;24.60;;;;;;;;;;4746062;30;20236;-77
2021/03/10 02:52:40;;;;;;;36.70;23.97;;;;;;;;;;4728695;30;20262;-78
2021/03/10 02:55:09;;;;;;;36.80;24.67;;;;;;;;;;4741653;30;20251;-79
2021/03/10 02:57:37;;;;;;;35.23;24.57;;;;;;;;;;4757518;30;20244;-79
2021/03/10 03:00:12;;;;;;;34.77;23.67;;;;;;;;;;4741984;30;20732;-79
2021/03/10 03:02:40;;;;;;;42.90;27.10;;;;;;;;;;4754756;30;20243;-79
2021/03/10 03:05:09;;;;;;;41.50;25.93;;;;;;;;;;4754639;30;20245;-78
2021/03/10 03:07:38;;;;;;;40.33;26.23;;;;;;;;;;4749646;30;20256;-78
2021/03/10 03:10:08;;;;;;;38.53;25.70;;;;;;;;;;4741179;30;20245;-79
2021/03/10 03:12:36;;;;;;;40.83;26.93;;;;;;;;;;4731429;30;20241;-79
2021/03/10 03:15:07;;;;;;;42.77;27.43;;;;;;;;;;4737582;30;20455;-78
2021/03/10 03:17:35;;;;;;;44.10;27.97;;;;;;;;;;4754938;30;20242;-78
2021/03/10 03:20:04;;;;;;;38.80;25.50;;;;;;;;;;4722211;30;20269;-78
2021/03/10 03:22:34;;;;;;;43.40;27.47;;;;;;;;;;4730139;30;20249;-78
2021/03/10 03:25:03;;;;;;;37.63;25.47;;;;;;;;;;4750744;30;20721;-78
2021/03/10 03:27:32;;;;;;;43.57;28.40;;;;;;;;;;4744442;30;20653;-78
2021/03/10 03:30:01;;;;;;;41.80;27.43;;;;;;;;;;4748154;30;20244;-77
2021/03/10 03:32:33;;;;;;;38.27;26.03;;;;;;;;;;4747884;30;20242;-78
2021/03/10 03:35:01;;;;;;;40.93;28.07;;;;;;;;;;4740750;30;20633;-78
2021/03/10 03:37:44;;;;;;;40.10;27.53;;;;;;;;;;4742944;30;20266;-78
2021/03/10 03:40:13;;;;;;;37.33;26.10;;;;;;;;;;4743848;30;20238;-79
2021/03/10 03:42:40;;;;;;;37.80;25.57;;;;;;;;;;4731640;30;20229;-79
2021/03/10 03:45:09;;;;;;;40.70;26.77;;;;;;;;;;4729618;30;20250;-78
2021/03/10 03:47:39;;;;;;;43.13;27.83;;;;;;;;;;4734878;30;20242;-78
2021/03/10 03:50:09;;;;;;;47.47;29.00;;;;;;;;;;4749137;30;20253;-79
2021/03/10 03:52:40;;;;;;;39.93;27.07;;;;;;;;;;4744036;30;20238;-77
2021/03/10 03:55:09;;;;;;;45.00;27.73;;;;;;;;;;4745993;30;20248;-78
2021/03/10 03:57:37;;;;;;;40.80;27.27;;;;;;;;;;4748549;30;20321;-78
2021/03/10 04:00:06;;;;;;;42.23;27.07;;;;;;;;;;4728320;30;20237;-78
2021/03/10 04:02:39;;;;;;;41.73;27.47;;;;;;;;;;4746242;30;20241;-80
2021/03/10 04:05:08;;;;;;;41.13;26.80;;;;;;;;;;4743021;30;20249;-78
2021/03/10 04:07:46;;;;;;;46.23;28.57;;;;;;;;;;4734847;30;20246;-78
2021/03/10 04:10:14;;;;;;;47.57;29.40;;;;;;;;;;4739572;30;20238;-78
2021/03/10 04:12:42;;;;;;;40.77;28.50;;;;;;;;;;4777098;29;20214;-77
2021/03/10 04:15:12;;;;;;;42.70;28.40;;;;;;;;;;4755220;30;20245;-79
2021/03/10 04:17:40;;;;;;;39.47;27.70;;;;;;;;;;4741949;30;20238;-79
2021/03/10 04:20:10;;;;;;;42.80;28.80;;;;;;;;;;4744274;30;20230;-78
2021/03/10 04:22:38;;;;;;;41.80;27.80;;;;;;;;;;4744705;30;20241;-78
2021/03/10 04:25:07;;;;;;;41.97;28.80;;;;;;;;;;4746219;30;20242;-77
2021/03/10 04:27:35;;;;;;;43.07;27.80;;;;;;;;;;4725556;30;20608;-78
2021/03/10 04:30:04;;;;;;;39.73;27.83;;;;;;;;;;4744096;30;20723;-78
2021/03/10 04:32:32;;;;;;;42.20;27.80;;;;;;;;;;4725893;30;20230;-78
2021/03/10 04:35:03;;;;;;;40.50;27.10;;;;;;;;;;4739213;30;20244;-77
2021/03/10 04:37:30;;;;;;;40.67;26.73;;;;;;;;;;4730489;30;20234;-78
2021/03/10 04:39:58;;;;;;;41.90;27.97;;;;;;;;;;4741180;30;20248;-78
2021/03/10 04:42:25;;;;;;;43.20;28.27;;;;;;;;;;4730213;30;20732;-78
2021/03/10 04:44:53;;;;;;;45.00;29.40;;;;;;;;;;4742345;30;20651;-78
2021/03/10 04:47:21;;;;;;;48.10;29.57;;;;;;;;;;4744216;30;20244;-77
2021/03/10 04:49:49;;;;;;;42.93;28.70;;;;;;;;;;4744113;30;20602;-78
2021/03/10 04:52:22;;;;;;;42.60;27.57;;;;;;;;;;4730547;30;20245;-78
2021/03/10 04:54:50;;;;;;;45.00;29.97;;;;;;;;;;4749799;30;20238;-79
2021/03/10 04:57:18;;;;;;;41.67;28.80;;;;;;;;;;4733714;30;20234;-78
2021/03/10 04:59:45;;;;;;;43.53;29.30;;;;;;;;;;4739694;30;20241;-79
2021/03/10 05:02:14;;;;;;;47.53;29.83;;;;;;;;;;4732661;30;20268;-79
2021/03/10 05:04:41;;;;;;;45.03;29.70;;;;;;;;;;4745446;30;20230;-77
2021/03/10 05:07:09;;;;;;;41.80;28.50;;;;;;;;;;4741509;30;20618;-77
2021/03/10 05:09:37;;;;;;;48.20;30.37;;;;;;;;;;4745161;30;20249;-78
2021/03/10 05:12:06;;;;;;;45.40;31.10;;;;;;;;;;4759274;30;20238;-78
2021/03/10 05:14:34;;;;;;;44.80;29.27;;;;;;;;;;4744001;30;20237;-78
2021/03/10 05:17:01;;;;;;;49.00;29.70;;;;;;;;;;4729470;30;20237;-78
2021/03/10 05:19:29;;;;;;;45.13;28.67;;;;;;;;;;4727140;30;20252;-77
2021/03/10 05:21:58;;;;;;;45.80;30.17;;;;;;;;;;4742596;30;20233;-79
2021/03/10 05:24:26;;;;;;;48.40;31.60;;;;;;;;;;4742935;30;20234;-79
2021/03/10 05:26:55;;;;;;;44.33;29.33;;;;;;;;;;4731922;30;20702;-77
2021/03/10 05:29:22;;;;;;;45.03;29.83;;;;;;;;;;4754552;30;20242;-78
2021/03/10 05:31:52;;;;;;;42.70;28.03;;;;;;;;;;4742940;30;20242;-77
2021/03/10 05:34:19;;;;;;;41.27;27.43;;;;;;;;;;4755011;30;20245;-78
2021/03/10 05:36:47;;;;;;;44.67;29.57;;;;;;;;;;4762339;30;20237;-79
2021/03/10 05:39:15;;;;;;;39.63;27.37;;;;;;;;;;4759257;30;20732;-79
2021/03/10 05:41:43;;;;;;;42.10;27.90;;;;;;;;;;4748538;30;20237;-79
2021/03/10 05:44:12;;;;;;;37.63;26.33;;;;;;;;;;4756999;30;20238;-79
2021/03/10 05:46:40;;;;;;;43.50;28.17;;;;;;;;;;4736243;30;20638;-79
2021/03/10 05:49:09;;;;;;;41.40;26.63;;;;;;;;;;4728758;30;20240;-78
2021/03/10 05:51:37;;;;;;;40.77;26.83;;;;;;;;;;4752621;30;20252;-79
2021/03/10 05:54:05;;;;;;;40.27;27.30;;;;;;;;;;4745255;30;20238;-79
2021/03/10 05:56:33;;;;;;;38.67;26.70;;;;;;;;;;4745189;30;20266;-79
2021/03/10 05:59:02;;;;;;;43.07;27.13;;;;;;;;;;4722356;30;20275;-78
2021/03/10 06:01:31;;;;;;;40.40;27.67;;;;;;;;;;4717640;30;20241;-79
2021/03/10 06:04:01;;;;;;;44.80;30.90;;;;;;;;;;4739357;30;20233;-79
2021/03/10 06:06:34;;;;;;;45.43;30.60;;;;;;;;;;4725826;30;20771;-79
2021/03/10 06:09:12;;;;;;;44.97;29.50;;;;;;;;;;4735761;30;20230;-78
2021/03/10 06:11:52;;;;;;;48.60;30.13;;;;;;;;;;4729537;30;20755;-78
2021/03/10 06:14:20;;;;;;;42.13;29.40;;;;;;;;;;4731809;30;20805;-79
2021/03/10 06:17:00;;;;;;;44.17;29.47;;;;;;;;;;4725472;30;20252;-79
2021/03/10 06:19:28;;;;;;;42.23;27.50;;;;;;;;;;4734732;30;20242;-78
2021/03/10 06:21:55;;;;;;;42.90;28.27;;;;;;;;;;4738799;30;20591;-79
2021/03/10 06:24:33;;;;;;;49.40;31.17;;;;;;;;;;4719733;30;20248;-78
2021/03/10 06:27:00;;;;;;;42.67;29.53;;;;;;;;;;4731139;30;20256;-78
2021/03/10 06:29:28;;;;;;;48.13;30.97;;;;;;;;;;4716190;30;20244;-78
2021/03/10 06:32:05;;;;;;;44.60;29.57;;;;;;;;;;4740003;30;20245;-79
2021/03/10 06:34:42;;;;;;;45.00;29.23;;;;;;;;;;4731468;30;20853;-79
2021/03/10 06:37:11;;;;;;;45.63;29.90;;;;;;;;;;4720905;30;20249;-78
2021/03/10 06:43:01;;;;;;;44.73;29.77;;;;;;;;;;4735874;30;20229;-78
2021/03/10 06:45:33;;;;;;;46.50;30.87;;;;;;;;;;4756723;30;20233;-79
2021/03/10 06:48:02;;;;;;;44.30;29.47;;;;;;;;;;4734909;30;20238;-81
2021/03/10 06:50:35;;;;;;;48.87;29.60;;;;;;;;;;4763395;30;20233;-79
2021/03/10 06:53:02;;;;;;;46.30;29.47;;;;;;;;;;4745933;30;20236;-80
2021/03/10 06:55:37;;;;;;;42.80;28.13;;;;;;;;;;4746211;30;20712;-78
2021/03/10 06:58:06;;;;;;;46.60;28.80;;;;;;;;;;4755906;30;20638;-78
2021/03/10 07:00:34;;;;;;;43.20;28.53;;;;;;;;;;4759348;30;20238;-78
2021/03/10 07:03:03;;;;;;;44.23;28.30;;;;;;;;;;4754699;29;20718;-78
2021/03/10 07:05:32;;;;;;;41.17;28.33;;;;;;;;;;4762007;29;20245;-77
2021/03/10 07:08:00;;;;;;;40.07;27.47;;;;;;;;;;4739055;30;20688;-78
2021/03/10 07:10:28;;;;;;;51.13;27.40;;;;;;;;;;4767184;30;20218;-77
2021/03/10 07:12:57;;;;;;;42.40;27.47;;;;;;;;;;4752231;30;20559;-77
2021/03/10 07:15:25;;;;;;;40.70;27.87;;;;;;;;;;4770532;30;20238;-78
2021/03/10 07:17:53;;;;;;;38.33;27.67;;;;;;;;;;4771219;30;20214;-78
2021/03/10 07:20:22;;;;;;;41.47;29.57;;;;;;;;;;4753982;30;20237;-78
2021/03/10 07:22:56;;;;;;;41.37;29.20;;;;;;;;;;4747334;30;20245;-78
2021/03/10 07:25:30;;;;;;;38.80;27.23;;;;;;;;;;4756359;30;20238;-78
2021/03/10 07:28:01;;;;;;;37.90;26.07;;;;;;;;;;4742271;30;20206;-79
2021/03/10 07:30:34;;;;;;;39.07;27.40;;;;;;;;;;4762074;30;20214;-79
2021/03/10 07:33:07;;;;;;;40.13;27.00;;;;;;;;;;4752238;30;20230;-78
2021/03/10 07:35:51;;;;;;;37.37;25.90;;;;;;;;;;4754735;30;20729;-78
2021/03/10 07:38:19;;;;;;;40.87;26.83;;;;;;;;;;4752354;30;20238;-78
2021/03/10 07:40:55;;;;;;;37.80;27.17;;;;;;;;;;4751389;30;20230;-78
2021/03/10 07:43:40;;;;;;;39.50;26.37;;;;;;;;;;4768887;30;20238;-78
2021/03/10 07:46:21;;;;;;;36.77;25.40;;;;;;;;;;4752519;29;20245;-78
2021/03/10 07:48:49;;;;;;;33.17;20.70;;;;;;;;;;4758436;30;20229;-77
2021/03/10 07:51:25;;;;;;;33.87;20.37;;;;;;;;;;4759762;30;20244;-78
2021/03/10 07:53:53;;;;;;;31.27;18.70;;;;;;;;;;4758418;30;20242;-79
2021/03/10 07:56:25;;;;;;;33.07;21.20;;;;;;;;;;4771771;30;20238;-78
2021/03/10 07:58:53;;;;;;;33.77;19.80;;;;;;;;;;4757225;30;20264;-78
2021/03/10 08:01:20;;;;;;;33.67;20.50;;;;;;;;;;4756967;30;20239;-79
2021/03/10 08:03:48;;;;;;;34.00;22.10;;;;;;;;;;4750173;30;20234;-82
2021/03/10 08:06:16;;;;;;;35.07;22.00;;;;;;;;;;4764785;29;20233;-79
2021/03/10 08:08:44;;;;;;;32.80;20.87;;;;;;;;;;4756157;30;20234;-78
2021/03/10 08:11:14;;;;;;;33.00;21.20;;;;;;;;;;4754421;30;20245;-78
2021/03/10 08:13:44;;;;;;;33.23;20.63;;;;;;;;;;4744164;30;20618;-78
2021/03/10 08:16:12;;;;;;;32.93;20.27;;;;;;;;;;4748118;30;20610;-79
2021/03/10 08:18:46;;;;;;;34.43;21.10;;;;;;;;;;4764832;30;20234;-78
2021/03/10 08:21:16;;;;;;;32.80;21.20;;;;;;;;;;4739642;30;20245;-79
2021/03/10 08:23:45;;;;;;;36.37;22.67;;;;;;;;;;4755192;30;20327;-84
2021/03/10 08:26:12;;;;;;;36.67;22.20;;;;;;;;;;4765060;30;20630;-78
2021/03/10 08:28:41;;;;;;;37.27;22.37;;;;;;;;;;4761140;30;20238;-79
2021/03/10 08:31:10;;;;;;;34.50;21.97;;;;;;;;;;4750763;29;20234;-77
2021/03/10 08:33:45;;;;;;;34.47;22.77;;;;;;;;;;4774242;30;20780;-78
2021/03/10 08:36:13;;;;;;;33.37;21.57;;;;;;;;;;4753032;30;20240;-79
2021/03/10 08:38:44;;;;;;;35.47;22.20;;;;;;;;;;4740781;30;20230;-79
2021/03/10 08:41:25;;;;;;;34.00;22.50;;;;;;;;;;4752117;30;20242;-79
2021/03/10 08:44:10;;;;;;;35.27;22.13;;;;;;;;;;4751870;30;20324;-79
2021/03/10 08:46:39;;;;;;;35.23;22.67;;;;;;;;;;4751320;29;20241;-77
2021/03/10 08:49:21;;;;;;;35.20;23.27;;;;;;;;;;4735988;29;20248;-79
2021/03/10 08:51:49;;;;;;;33.47;23.00;;;;;;;;;;4742982;30;20729;-86
2021/03/10 08:54:18;;;;;;;31.93;22.10;;;;;;;;;;4733471;29;20250;-81
2021/03/10 08:56:50;;;;;;;38.27;23.07;;;;;;;;;;4770355;29;20231;-86
2021/03/10 08:59:18;;;;;;;35.90;24.63;;;;;;;;;;4786831;29;20245;-81
2021/03/10 09:01:48;;;;;;;33.73;22.73;;;;;;;;;;4770104;30;20247;-84
2021/03/10 09:04:26;;;;;;;36.23;23.27;;;;;;;;;;4752117;30;20241;-80
2021/03/10 09:06:56;;;;;;;38.63;21.93;;;;;;;;;;4753990;30;20226;-81
2021/03/10 09:09:27;;;;;;;31.90;21.80;;;;;;;;;;4745379;30;20640;-80
2021/03/10 09:11:57;;;;;;;32.27;22.63;;;;;;;;;;4742972;30;20492;-79
2021/03/10 09:14:41;;;;;;;30.97;21.77;;;;;;;;;;4737116;30;20226;-79
2021/03/10 09:17:12;;;;;;;31.03;21.30;;;;;;;;;;4750740;30;20256;-80
2021/03/10 09:19:46;;;;;;;30.97;21.27;;;;;;;;;;4740852;30;20606;-83
2021/03/10 09:22:18;;;;;;;39.20;23.40;;;;;;;;;;4751361;30;20245;-79
2021/03/10 09:25:21;;;;;;;31.37;22.27;;;;;;;;;;4745722;30;21678;-83
2021/03/10 09:28:07;;;;;;;32.53;22.73;;;;;;;;;;4763907;30;21183;-80
2021/03/10 09:30:40;;;;;;;32.60;23.10;;;;;;;;;;4752640;30;20244;-81
2021/03/10 09:33:17;;;;;;;33.50;22.83;;;;;;;;;;4750141;30;20234;-79
2021/03/10 09:35:51;;;;;;;31.47;22.23;;;;;;;;;;4745544;30;20243;-87
2021/03/10 09:38:20;;;;;;;34.30;23.23;;;;;;;;;;4752327;30;20230;-82
2021/03/10 09:40:52;;;;;;;32.97;22.17;;;;;;;;;;4749515;30;20246;-81
2021/03/10 09:43:21;;;;;;;31.83;21.70;;;;;;;;;;4755617;30;20242;-84
2021/03/10 09:45:50;;;;;;;34.00;21.47;;;;;;;;;;4750472;30;20245;-86
2021/03/10 09:48:29;;;;;;;29.63;21.40;;;;;;;;;;4747946;30;20235;-78
2021/03/10 09:51:04;;;;;;;28.30;21.07;;;;;;;;;;4736120;30;20253;-80
2021/03/10 09:53:34;;;;;;;24.37;18.80;;;;;;;;;;4735231;30;20237;-79
2021/03/10 09:56:11;;;;;;;30.90;20.90;;;;;;;;;;4754054;30;20245;-83
2021/03/10 09:58:47;;;;;;;30.03;21.97;;;;;;;;;;4751245;30;20241;-83
2021/03/10 10:01:18;;;;;;;31.97;22.13;;;;;;;;;;4765251;30;20260;-79
2021/03/10 10:03:51;;;;;;;31.50;21.87;;;;;;;;;;4749682;30;20253;-85
2021/03/10 10:06:22;;;;;;;32.80;22.73;;;;;;;;;;4764112;30;20735;-78
2021/03/10 10:08:52;;;;;;;28.97;21.13;;;;;;;;;;4751005;30;20222;-85
2021/03/10 10:11:25;;;;;;;28.33;22.30;;;;;;;;;;4751076;30;20245;-79
2021/03/10 10:13:52;;;;;;;24.43;18.50;;;;;;;;;;4733827;30;20696;-81
2021/03/10 10:16:21;;;;;;;26.13;18.77;;;;;;;;;;4745424;30;20250;-87
2021/03/10 10:18:51;;;;;;;24.17;18.53;;;;;;;;;;4737937;30;20230;-86
2021/03/10 10:21:20;;;;;;;27.80;18.97;;;;;;;;;;4750041;30;20234;-84
2021/03/10 10:23:49;;;;;;;23.33;18.37;;;;;;;;;;4747981;30;20234;-80
2021/03/10 10:26:21;;;;;;;25.37;19.07;;;;;;;;;;4747793;30;20735;-84
2021/03/10 10:28:51;;;;;;;23.50;18.37;;;;;;;;;;4745064;30;20642;-86
2021/03/10 10:31:43;;;;;;;23.93;19.03;;;;;;;;;;4746466;30;20233;-80
2021/03/10 10:34:11;;;;;;;26.80;19.83;;;;;;;;;;4764358;30;20726;-88
2021/03/10 10:36:40;;;;;;;24.03;19.57;;;;;;;;;;4747686;30;20771;-78
2021/03/10 10:39:25;;;;;;;25.60;18.57;;;;;;;;;;4732150;30;20241;-80
2021/03/10 10:41:53;;;;;;;23.83;17.73;;;;;;;;;;4742855;30;20245;-79
2021/03/10 10:44:24;;;;;;;26.33;19.43;;;;;;;;;;4731899;30;20238;-82
2021/03/10 10:46:51;;;;;;;21.50;17.93;;;;;;;;;;4728010;30;20253;-82
2021/03/10 10:49:20;;;;;;;22.93;17.40;;;;;;;;;;4760998;30;20238;-78
2021/03/10 10:51:47;;;;;;;21.03;16.90;;;;;;;;;;4747143;30;20261;-81
2021/03/10 10:54:23;;;;;;;20.93;18.00;;;;;;;;;;4760717;30;20242;-78
2021/03/10 10:56:51;;;;;;;20.60;16.77;;;;;;;;;;4763082;30;20242;-83
2021/03/10 10:59:48;;;;;;;22.20;17.07;;;;;;;;;;4751646;30;20237;-84
2021/03/10 11:02:22;;;;;;;23.50;16.97;;;;;;;;;;4758734;30;20257;-77
2021/03/10 11:04:56;;;;;;;19.97;15.50;;;;;;;;;;4743440;30;20234;-86
2021/03/10 11:07:25;;;;;;;20.20;16.13;;;;;;;;;;4760620;30;20237;-80
2021/03/10 11:09:57;;;;;;;18.30;15.80;;;;;;;;;;4749283;30;20230;-78
2021/03/10 11:12:24;;;;;;;20.30;16.27;;;;;;;;;;4747826;30;20234;-77
2021/03/10 11:15:00;;;;;;;21.37;17.30;;;;;;;;;;4752312;30;20258;-87
2021/03/10 11:17:41;;;;;;;18.10;14.80;;;;;;;;;;4763859;30;20239;-84
2021/03/10 11:20:14;;;;;;;18.37;15.57;;;;;;;;;;4764888;30;20238;-83
2021/03/10 11:22:42;;;;;;;19.63;15.37;;;;;;;;;;4765740;30;20242;-83
2021/03/10 11:25:13;;;;;;;18.30;15.40;;;;;;;;;;4745123;30;20238;-79
2021/03/10 11:27:41;;;;;;;15.50;13.80;;;;;;;;;;4747751;30;20246;-78
2021/03/10 11:30:16;;;;;;;17.93;13.87;;;;;;;;;;4729277;30;20261;-79
2021/03/10 11:32:45;;;;;;;15.13;13.23;;;;;;;;;;4746343;30;20231;-78
2021/03/10 11:35:17;;;;;;;14.83;11.60;;;;;;;;;;4744783;30;20238;-78
2021/03/10 11:37:48;;;;;;;12.77;10.97;;;;;;;;;;4747046;30;20234;-78
2021/03/10 11:40:16;;;;;;;15.00;12.33;;;;;;;;;;4744387;30;20245;-79
2021/03/10 11:42:47;;;;;;;13.00;11.53;;;;;;;;;;4757644;30;20238;-80
2021/03/10 11:45:16;;;;;;;14.00;11.97;;;;;;;;;;4740691;30;20731;-83
2021/03/10 11:47:43;;;;;;;15.77;12.53;;;;;;;;;;4730292;30;20608;-84
2021/03/10 11:50:12;;;;;;;15.43;13.07;;;;;;;;;;4756641;30;20214;-86
2021/03/10 11:52:40;;;;;;;13.80;11.83;;;;;;;;;;4769869;29;20224;-86
2021/03/10 11:55:11;;;;;;;14.63;13.03;;;;;;;;;;4775077;30;20243;-78
2021/03/10 11:57:38;;;;;;;11.70;10.50;;;;;;;;;;4744295;30;20238;-78
2021/03/10 12:00:09;;;;;;;12.97;11.53;;;;;;;;;;4757882;30;20380;-83
2021/03/10 12:02:41;;;;;;;12.97;11.10;;;;;;;;;;4743013;30;20248;-79
2021/03/10 12:05:17;;;;;;;14.23;12.13;;;;;;;;;;4742351;30;20238;-82
2021/03/10 12:07:45;;;;;;;13.63;12.20;;;;;;;;;;4742302;30;21010;-83
2021/03/10 12:10:14;;;;;;;16.13;12.57;;;;;;;;;;4742818;30;22434;-78
2021/03/10 12:12:41;;;;;;;13.67;12.17;;;;;;;;;;4743050;30;20709;-79
2021/03/10 12:15:11;;;;;;;14.10;11.97;;;;;;;;;;4729756;30;20257;-79
2021/03/10 12:17:39;;;;;;;16.03;13.00;;;;;;;;;;4757535;30;20230;-78
2021/03/10 12:20:09;;;;;;;14.33;12.33;;;;;;;;;;4741197;30;20242;-79
2021/03/10 12:22:38;;;;;;;12.77;11.40;;;;;;;;;;4742329;30;20242;-83
2021/03/10 12:25:07;;;;;;;13.60;11.77;;;;;;;;;;4747414;29;20241;-83
2021/03/10 12:27:35;;;;;;;12.52;11.23;;;;;;;;;;4759119;30;20234;-84
2021/03/10 12:30:04;;;;;;;26.08;20.48;;;;;;;;;;4747032;30;20245;-83
2021/03/10 12:32:35;;;;;;;12.35;11.07;;;;;;;;;;4742038;30;20241;-81
2021/03/10 12:35:05;;;;;;;11.93;10.73;;;;;;;;;;4742163;30;20291;-78
2021/03/10 12:37:34;;;;;;;12.20;10.98;;;;;;;;;;4743482;30;20591;-79
2021/03/10 12:40:02;;;;;;;12.32;11.02;;;;;;;;;;4759200;29;20327;-83
2021/03/10 12:42:30;;;;;;;12.05;10.77;;;;;;;;;;4742080;30;20639;-83
2021/03/10 12:44:58;;;;;;;10.90;9.80;;;;;;;;;;4740824;29;20239;-80
2021/03/10 12:47:26;;;;;;;11.43;9.48;;;;;;;;;;4759274;30;20719;-79
2021/03/10 12:49:54;;;;;;;9.73;8.57;;;;;;;;;;4744178;30;20230;-78
2021/03/10 12:52:22;;;;;;;10.57;8.68;;;;;;;;;;4726135;30;20242;-83
2021/03/10 12:54:50;;;;;;;9.45;8.55;;;;;;;;;;4729145;30;20234;-77
2021/03/10 12:57:18;;;;;;;10.27;9.27;;;;;;;;;;4742549;29;20234;-77
2021/03/10 12:59:45;;;;;;;9.43;8.52;;;;;;;;;;4746931;30;20233;-77
2021/03/10 13:02:13;;;;;;;10.30;9.30;;;;;;;;;;4742412;30;20242;-79
2021/03/10 13:04:41;;;;;;;11.10;10.00;;;;;;;;;;4759456;30;20234;-78
2021/03/10 13:07:09;;;;;;;12.40;11.20;;;;;;;;;;4757130;30;20246;-79
2021/03/10 13:09:36;;;;;;;10.88;9.77;;;;;;;;;;4742606;30;20238;-78
2021/03/10 13:12:07;;;;;;;12.95;11.65;;;;;;;;;;4758353;30;20230;-80
2021/03/10 13:14:44;;;;;;;11.90;10.80;;;;;;;;;;4745337;30;20241;-78
2021/03/10 13:17:12;;;;;;;12.57;11.32;;;;;;;;;;4759056;29;20238;-79
2021/03/10 13:19:40;;;;;;;13.23;11.93;;;;;;;;;;4745088;29;20242;-84
2021/03/10 13:22:08;;;;;;;14.30;12.90;;;;;;;;;;4742615;30;20245;-81
2021/03/10 13:24:36;;;;;;;13.35;12.05;;;;;;;;;;4744329;30;20233;-77
2021/03/10 13:27:06;;;;;;;14.02;12.63;;;;;;;;;;4741062;30;20238;-78
2021/03/10 13:29:33;;;;;;;14.20;12.80;;;;;;;;;;4760088;30;20234;-78
2021/03/10 13:32:02;;;;;;;13.85;12.45;;;;;;;;;;4743222;30;20237;-78
2021/03/10 13:34:29;;;;;;;14.82;13.32;;;;;;;;;;4758668;30;20239;-78
2021/03/10 13:36:57;;;;;;;14.43;12.93;;;;;;;;;;4742878;30;20249;-81
2021/03/10 13:39:25;;;;;;;14.95;13.45;;;;;;;;;;4729816;30;20246;-79
2021/03/10 13:41:52;;;;;;;13.90;12.48;;;;;;;;;;4744639;30;20234;-79
2021/03/10 13:44:20;;;;;;;14.07;12.77;;;;;;;;;;4742399;30;20234;-79
2021/03/10 13:46:48;;;;;;;13.70;12.30;;;;;;;;;;4760495;30;20620;-77
2021/03/10 13:49:16;;;;;;;13.05;11.75;;;;;;;;;;4742301;30;20235;-78
2021/03/10 13:51:43;;;;;;;13.55;12.35;;;;;;;;;;4740474;29;20222;-79
2021/03/10 13:54:11;;;;;;;13.88;12.50;;;;;;;;;;4744313;29;20455;-76
2021/03/10 13:56:38;;;;;;;13.63;12.40;;;;;;;;;;4741104;30;20234;-76
2021/03/10 13:59:06;;;;;;;14.57;13.18;;;;;;;;;;4741365;30;20246;-77
2021/03/10 14:01:34;;;;;;;14.75;13.20;;;;;;;;;;4755203;30;20238;-80
2021/03/10 14:04:02;;;;;;;12.93;11.60;;;;;;;;;;4751800;30;20261;-77
2021/03/10 14:06:30;;;;;;;12.60;11.30;;;;;;;;;;4738217;30;20246;-81
2021/03/10 14:08:57;;;;;;;13.80;12.43;;;;;;;;;;4742636;29;20218;-78
2021/03/10 14:11:25;;;;;;;13.60;12.20;;;;;;;;;;4741488;30;20743;-78
2021/03/10 14:13:52;;;;;;;12.32;11.02;;;;;;;;;;4743897;30;20234;-80
2021/03/10 14:16:20;;;;;;;12.35;11.05;;;;;;;;;;4744198;30;20238;-84
2021/03/10 14:18:48;;;;;;;12.00;10.70;;;;;;;;;;4725715;30;20234;-78
2021/03/10 14:21:16;;;;;;;13.13;11.75;;;;;;;;;;4756081;29;20368;-77
2021/03/10 14:23:43;;;;;;;13.85;11.63;;;;;;;;;;4727601;30;20639;-78
2021/03/10 14:26:11;;;;;;;12.98;11.27;;;;;;;;;;4745519;30;20237;-78
2021/03/10 14:28:39;;;;;;;13.87;12.03;;;;;;;;;;4741812;30;20231;-78
2021/03/10 14:31:07;;;;;;;13.00;11.60;;;;;;;;;;4760614;30;20242;-78
2021/03/10 14:33:35;;;;;;;12.30;10.70;;;;;;;;;;4745201;30;20248;-78
2021/03/10 14:36:05;;;;;;;14.67;11.90;;;;;;;;;;4744116;30;20747;-78
2021/03/10 14:38:33;;;;;;;13.20;11.23;;;;;;;;;;4730674;30;20234;-80
2021/03/10 14:41:00;;;;;;;12.60;10.77;;;;;;;;;;4753999;30;20759;-83